sensor_id;sensor_type;location;lat;lon;timestamp;P1;durP1;ratioP1;P2;durP2;ratioP2
16242;SDS011;11719;51.052;6.982;2023-12-22T00:02:03;1.93;;;0.03;;
16242;SDS011;11719;51.052;6.982;2023-12-22T00:04:35;0.53;;;0.37;;
16242;SDS011;11719;51.052;6.982;2023-12-22T00:07:04;0.53;;;0.20;;
16242;SDS011;11719;51.052;6.982;2023-12-22T00:09:30;1.07;;;0.10;;
16242;SDS011;11719;51.052;6.982;2023-12-22T00:11:59;0.77;;;0.30;;
16242;SDS011;11719;51.052;6.982;2023-12-22T00:14:38;4.27;;;0.50;;
16242;SDS011;11719;51.052;6.982;2023-12-22T00:17:05;0.47;;;0.17;;
16242;SDS011;11719;51.052;6.982;2023-12-22T00:19:33;2.77;;;0.93;;
16242;SDS011;11719;51.052;6.982;2023-12-22T00:22:07;1.60;;;0.33;;
16242;SDS011;11719;51.052;6.982;2023-12-22T00:24:33;1.30;;;0.30;;
16242;SDS011;11719;51.052;6.982;2023-12-22T00:27:04;5.97;;;0.60;;
16242;SDS011;11719;51.052;6.982;2023-12-22T00:29:34;1.90;;;0.23;;
16242;SDS011;11719;51.052;6.982;2023-12-22T00:32:02;0.47;;;0.20;;
16242;SDS011;11719;51.052;6.982;2023-12-22T00:34:35;0.57;;;0.20;;
16242;SDS011;11719;51.052;6.982;2023-12-22T00:37:01;3.17;;;0.57;;
16242;SDS011;11719;51.052;6.982;2023-12-22T00:39:30;0.53;;;0.20;;
16242;SDS011;11719;51.052;6.982;2023-12-22T00:41:56;0.80;;;0.27;;
16242;SDS011;11719;51.052;6.982;2023-12-22T00:44:22;2.47;;;0.20;;
16242;SDS011;11719;51.052;6.982;2023-12-22T00:46:56;1.90;;;0.60;;
16242;SDS011;11719;51.052;6.982;2023-12-22T00:49:21;7.13;;;0.83;;
16242;SDS011;11719;51.052;6.982;2023-12-22T00:51:50;1.40;;;0.60;;
16242;SDS011;11719;51.052;6.982;2023-12-22T00:54:18;3.07;;;0.60;;
16242;SDS011;11719;51.052;6.982;2023-12-22T00:56:44;2.33;;;0.53;;
16242;SDS011;11719;51.052;6.982;2023-12-22T00:59:25;1.07;;;0.40;;
16242;SDS011;11719;51.052;6.982;2023-12-22T01:01:50;2.13;;;0.30;;
16242;SDS011;11719;51.052;6.982;2023-12-22T01:04:19;2.00;;;0.70;;
16242;SDS011;11719;51.052;6.982;2023-12-22T01:06:49;2.47;;;0.93;;
16242;SDS011;11719;51.052;6.982;2023-12-22T01:09:15;1.97;;;0.47;;
16242;SDS011;11719;51.052;6.982;2023-12-22T01:11:41;1.27;;;0.60;;
16242;SDS011;11719;51.052;6.982;2023-12-22T01:14:07;1.13;;;0.73;;
16242;SDS011;11719;51.052;6.982;2023-12-22T01:16:42;4.63;;;1.40;;
16242;SDS011;11719;51.052;6.982;2023-12-22T01:19:09;1.13;;;0.50;;
16242;SDS011;11719;51.052;6.982;2023-12-22T01:21:41;2.83;;;0.77;;
16242;SDS011;11719;51.052;6.982;2023-12-22T01:24:07;2.30;;;0.10;;
16242;SDS011;11719;51.052;6.982;2023-12-22T01:26:35;2.57;;;0.53;;
16242;SDS011;11719;51.052;6.982;2023-12-22T01:29:01;0.30;;;0.10;;
16242;SDS011;11719;51.052;6.982;2023-12-22T01:31:56;0.73;;;0.20;;
16242;SDS011;11719;51.052;6.982;2023-12-22T01:34:22;3.67;;;0.30;;
16242;SDS011;11719;51.052;6.982;2023-12-22T01:36:48;0.20;;;0.07;;
16242;SDS011;11719;51.052;6.982;2023-12-22T01:39:15;3.17;;;0.33;;
16242;SDS011;11719;51.052;6.982;2023-12-22T01:41:41;4.33;;;0.97;;
16242;SDS011;11719;51.052;6.982;2023-12-22T01:44:07;2.03;;;0.67;;
16242;SDS011;11719;51.052;6.982;2023-12-22T01:46:33;1.70;;;0.20;;
16242;SDS011;11719;51.052;6.982;2023-12-22T01:49:00;1.43;;;0.50;;
16242;SDS011;11719;51.052;6.982;2023-12-22T01:51:27;0.50;;;0.20;;
16242;SDS011;11719;51.052;6.982;2023-12-22T01:54:01;3.13;;;0.27;;
16242;SDS011;11719;51.052;6.982;2023-12-22T01:56:26;1.40;;;0.10;;
16242;SDS011;11719;51.052;6.982;2023-12-22T02:02:09;1.67;;;0.27;;
16242;SDS011;11719;51.052;6.982;2023-12-22T02:04:35;1.10;;;0.13;;
16242;SDS011;11719;51.052;6.982;2023-12-22T02:07:09;1.50;;;0.23;;
16242;SDS011;11719;51.052;6.982;2023-12-22T02:09:36;2.97;;;0.40;;
16242;SDS011;11719;51.052;6.982;2023-12-22T02:12:04;3.47;;;0.50;;
16242;SDS011;11719;51.052;6.982;2023-12-22T02:14:30;0.60;;;0.20;;
16242;SDS011;11719;51.052;6.982;2023-12-22T02:22:09;3.13;;;0.60;;
16242;SDS011;11719;51.052;6.982;2023-12-22T02:24:50;3.20;;;0.63;;
16242;SDS011;11719;51.052;6.982;2023-12-22T02:30:14;4.07;;;0.50;;
16242;SDS011;11719;51.052;6.982;2023-12-22T02:32:59;1.80;;;0.20;;
16242;SDS011;11719;51.052;6.982;2023-12-22T02:35:29;1.90;;;0.50;;
16242;SDS011;11719;51.052;6.982;2023-12-22T02:38:07;4.17;;;0.50;;
16242;SDS011;11719;51.052;6.982;2023-12-22T02:40:34;3.13;;;0.50;;
16242;SDS011;11719;51.052;6.982;2023-12-22T02:43:01;2.27;;;0.43;;
16242;SDS011;11719;51.052;6.982;2023-12-22T02:45:28;4.60;;;0.57;;
16242;SDS011;11719;51.052;6.982;2023-12-22T02:47:55;2.93;;;0.93;;
16242;SDS011;11719;51.052;6.982;2023-12-22T02:50:21;0.30;;;0.10;;
16242;SDS011;11719;51.052;6.982;2023-12-22T02:52:46;1.90;;;0.20;;
16242;SDS011;11719;51.052;6.982;2023-12-22T02:55:22;4.20;;;0.77;;
16242;SDS011;11719;51.052;6.982;2023-12-22T02:57:47;0.63;;;0.33;;
16242;SDS011;11719;51.052;6.982;2023-12-22T03:00:13;1.43;;;0.30;;
16242;SDS011;11719;51.052;6.982;2023-12-22T03:02:39;2.80;;;0.63;;
16242;SDS011;11719;51.052;6.982;2023-12-22T03:05:07;1.83;;;0.50;;
16242;SDS011;11719;51.052;6.982;2023-12-22T03:07:32;4.20;;;1.00;;
16242;SDS011;11719;51.052;6.982;2023-12-22T03:10:01;2.97;;;0.87;;
16242;SDS011;11719;51.052;6.982;2023-12-22T03:12:28;2.60;;;0.40;;
16242;SDS011;11719;51.052;6.982;2023-12-22T03:14:53;6.00;;;0.60;;
16242;SDS011;11719;51.052;6.982;2023-12-22T03:17:19;8.33;;;0.73;;
16242;SDS011;11719;51.052;6.982;2023-12-22T03:19:45;1.83;;;0.30;;
16242;SDS011;11719;51.052;6.982;2023-12-22T03:22:11;3.80;;;0.43;;
16242;SDS011;11719;51.052;6.982;2023-12-22T03:24:41;2.20;;;0.37;;
16242;SDS011;11719;51.052;6.982;2023-12-22T03:27:20;1.33;;;0.50;;
16242;SDS011;11719;51.052;6.982;2023-12-22T03:29:46;5.07;;;0.60;;
16242;SDS011;11719;51.052;6.982;2023-12-22T03:32:12;2.50;;;0.50;;
16242;SDS011;11719;51.052;6.982;2023-12-22T03:34:38;6.23;;;0.53;;
16242;SDS011;11719;51.052;6.982;2023-12-22T03:37:03;1.50;;;0.47;;
16242;SDS011;11719;51.052;6.982;2023-12-22T03:39:31;1.43;;;0.47;;
16242;SDS011;11719;51.052;6.982;2023-12-22T03:42:00;5.73;;;0.77;;
16242;SDS011;11719;51.052;6.982;2023-12-22T03:44:31;6.23;;;0.70;;
16242;SDS011;11719;51.052;6.982;2023-12-22T03:46:57;1.50;;;0.63;;
16242;SDS011;11719;51.052;6.982;2023-12-22T03:49:22;4.10;;;0.50;;
16242;SDS011;11719;51.052;6.982;2023-12-22T03:51:48;2.93;;;0.60;;
16242;SDS011;11719;51.052;6.982;2023-12-22T03:54:20;3.40;;;0.60;;
16242;SDS011;11719;51.052;6.982;2023-12-22T03:56:46;4.33;;;0.70;;
16242;SDS011;11719;51.052;6.982;2023-12-22T03:59:11;4.37;;;0.70;;
16242;SDS011;11719;51.052;6.982;2023-12-22T04:01:38;1.37;;;0.20;;
16242;SDS011;11719;51.052;6.982;2023-12-22T04:04:04;4.03;;;0.77;;
16242;SDS011;11719;51.052;6.982;2023-12-22T04:06:29;5.20;;;0.60;;
16242;SDS011;11719;51.052;6.982;2023-12-22T04:09:00;0.80;;;0.70;;
16242;SDS011;11719;51.052;6.982;2023-12-22T04:11:25;2.80;;;0.60;;
16242;SDS011;11719;51.052;6.982;2023-12-22T04:13:51;3.23;;;0.43;;
16242;SDS011;11719;51.052;6.982;2023-12-22T04:16:17;1.27;;;0.60;;
16242;SDS011;11719;51.052;6.982;2023-12-22T04:18:42;2.70;;;0.70;;
16242;SDS011;11719;51.052;6.982;2023-12-22T04:21:10;4.30;;;1.17;;
16242;SDS011;11719;51.052;6.982;2023-12-22T04:23:35;1.70;;;0.50;;
16242;SDS011;11719;51.052;6.982;2023-12-22T04:26:01;3.27;;;1.13;;
16242;SDS011;11719;51.052;6.982;2023-12-22T04:28:27;3.50;;;1.00;;
16242;SDS011;11719;51.052;6.982;2023-12-22T04:30:53;4.17;;;0.97;;
16242;SDS011;11719;51.052;6.982;2023-12-22T04:33:19;7.27;;;1.77;;
16242;SDS011;11719;51.052;6.982;2023-12-22T04:35:44;8.33;;;0.77;;
16242;SDS011;11719;51.052;6.982;2023-12-22T04:38:21;2.83;;;0.73;;
16242;SDS011;11719;51.052;6.982;2023-12-22T04:40:49;1.67;;;0.50;;
16242;SDS011;11719;51.052;6.982;2023-12-22T04:43:16;4.43;;;0.63;;
16242;SDS011;11719;51.052;6.982;2023-12-22T04:45:51;5.33;;;0.60;;
16242;SDS011;11719;51.052;6.982;2023-12-22T04:48:17;2.00;;;0.40;;
16242;SDS011;11719;51.052;6.982;2023-12-22T04:50:49;5.47;;;1.17;;
16242;SDS011;11719;51.052;6.982;2023-12-22T04:53:25;5.10;;;0.87;;
16242;SDS011;11719;51.052;6.982;2023-12-22T04:55:53;6.20;;;0.77;;
16242;SDS011;11719;51.052;6.982;2023-12-22T04:58:24;3.20;;;0.63;;
16242;SDS011;11719;51.052;6.982;2023-12-22T05:00:50;7.73;;;0.90;;
16242;SDS011;11719;51.052;6.982;2023-12-22T05:03:17;5.13;;;0.57;;
16242;SDS011;11719;51.052;6.982;2023-12-22T05:05:47;2.30;;;0.70;;
16242;SDS011;11719;51.052;6.982;2023-12-22T05:08:12;2.73;;;0.50;;
16242;SDS011;11719;51.052;6.982;2023-12-22T05:10:38;0.60;;;0.17;;
16242;SDS011;11719;51.052;6.982;2023-12-22T05:13:04;5.03;;;0.93;;
16242;SDS011;11719;51.052;6.982;2023-12-22T05:15:30;6.23;;;1.23;;
16242;SDS011;11719;51.052;6.982;2023-12-22T05:18:02;5.90;;;0.83;;
16242;SDS011;11719;51.052;6.982;2023-12-22T05:20:28;1.53;;;0.53;;
16242;SDS011;11719;51.052;6.982;2023-12-22T05:22:54;4.67;;;0.50;;
16242;SDS011;11719;51.052;6.982;2023-12-22T05:25:19;5.77;;;0.73;;
16242;SDS011;11719;51.052;6.982;2023-12-22T05:27:48;6.87;;;1.30;;
16242;SDS011;11719;51.052;6.982;2023-12-22T05:30:14;3.13;;;0.60;;
16242;SDS011;11719;51.052;6.982;2023-12-22T05:32:39;0.77;;;0.20;;
16242;SDS011;11719;51.052;6.982;2023-12-22T05:35:05;6.63;;;1.10;;
16242;SDS011;11719;51.052;6.982;2023-12-22T05:37:31;2.90;;;0.40;;
16242;SDS011;11719;51.052;6.982;2023-12-22T05:39:57;3.83;;;0.60;;
16242;SDS011;11719;51.052;6.982;2023-12-22T05:42:23;3.47;;;0.70;;
16242;SDS011;11719;51.052;6.982;2023-12-22T05:44:52;6.93;;;0.93;;
16242;SDS011;11719;51.052;6.982;2023-12-22T05:47:26;3.77;;;0.73;;
16242;SDS011;11719;51.052;6.982;2023-12-22T05:49:56;4.87;;;1.17;;
16242;SDS011;11719;51.052;6.982;2023-12-22T05:52:22;5.70;;;0.97;;
16242;SDS011;11719;51.052;6.982;2023-12-22T05:54:47;7.93;;;1.07;;
16242;SDS011;11719;51.052;6.982;2023-12-22T05:57:13;4.90;;;0.77;;
16242;SDS011;11719;51.052;6.982;2023-12-22T05:59:46;6.83;;;1.20;;
16242;SDS011;11719;51.052;6.982;2023-12-22T06:02:11;5.27;;;1.10;;
16242;SDS011;11719;51.052;6.982;2023-12-22T06:04:40;2.37;;;0.50;;
16242;SDS011;11719;51.052;6.982;2023-12-22T06:07:06;5.67;;;0.60;;
16242;SDS011;11719;51.052;6.982;2023-12-22T06:09:32;2.70;;;0.80;;
16242;SDS011;11719;51.052;6.982;2023-12-22T06:11:58;3.37;;;1.20;;
16242;SDS011;11719;51.052;6.982;2023-12-22T06:14:23;1.87;;;0.70;;
16242;SDS011;11719;51.052;6.982;2023-12-22T06:16:49;5.10;;;1.37;;
16242;SDS011;11719;51.052;6.982;2023-12-22T06:19:20;3.57;;;0.50;;
16242;SDS011;11719;51.052;6.982;2023-12-22T06:21:55;7.03;;;1.47;;
16242;SDS011;11719;51.052;6.982;2023-12-22T06:24:22;2.13;;;0.77;;
16242;SDS011;11719;51.052;6.982;2023-12-22T06:26:48;3.53;;;0.73;;
16242;SDS011;11719;51.052;6.982;2023-12-22T06:29:15;4.47;;;0.60;;
16242;SDS011;11719;51.052;6.982;2023-12-22T06:31:40;6.87;;;1.40;;
16242;SDS011;11719;51.052;6.982;2023-12-22T06:34:06;3.47;;;0.87;;
16242;SDS011;11719;51.052;6.982;2023-12-22T06:36:33;3.87;;;0.63;;
16242;SDS011;11719;51.052;6.982;2023-12-22T06:39:01;4.87;;;0.90;;
16242;SDS011;11719;51.052;6.982;2023-12-22T06:41:27;4.87;;;0.90;;
16242;SDS011;11719;51.052;6.982;2023-12-22T06:44:02;3.37;;;0.90;;
16242;SDS011;11719;51.052;6.982;2023-12-22T06:46:28;6.57;;;0.97;;
16242;SDS011;11719;51.052;6.982;2023-12-22T06:48:55;5.87;;;0.57;;
16242;SDS011;11719;51.052;6.982;2023-12-22T06:51:28;4.87;;;0.93;;
16242;SDS011;11719;51.052;6.982;2023-12-22T06:53:57;2.43;;;0.83;;
16242;SDS011;11719;51.052;6.982;2023-12-22T06:56:25;7.63;;;1.00;;
16242;SDS011;11719;51.052;6.982;2023-12-22T06:59:01;1.30;;;0.50;;
16242;SDS011;11719;51.052;6.982;2023-12-22T07:01:28;2.40;;;1.03;;
16242;SDS011;11719;51.052;6.982;2023-12-22T07:03:58;6.43;;;1.03;;
16242;SDS011;11719;51.052;6.982;2023-12-22T07:06:27;3.20;;;0.50;;
16242;SDS011;11719;51.052;6.982;2023-12-22T07:12:02;6.43;;;1.00;;
16242;SDS011;11719;51.052;6.982;2023-12-22T07:14:28;3.17;;;0.83;;
16242;SDS011;11719;51.052;6.982;2023-12-22T07:16:54;6.13;;;1.77;;
16242;SDS011;11719;51.052;6.982;2023-12-22T07:19:22;3.90;;;1.23;;
16242;SDS011;11719;51.052;6.982;2023-12-22T07:21:52;5.17;;;0.97;;
16242;SDS011;11719;51.052;6.982;2023-12-22T07:24:18;5.80;;;1.37;;
16242;SDS011;11719;51.052;6.982;2023-12-22T07:26:44;5.03;;;0.93;;
16242;SDS011;11719;51.052;6.982;2023-12-22T07:29:12;7.83;;;0.97;;
16242;SDS011;11719;51.052;6.982;2023-12-22T07:31:51;4.53;;;1.20;;
16242;SDS011;11719;51.052;6.982;2023-12-22T07:34:17;1.60;;;0.47;;
16242;SDS011;11719;51.052;6.982;2023-12-22T07:36:43;1.90;;;0.30;;
16242;SDS011;11719;51.052;6.982;2023-12-22T07:39:14;3.70;;;0.30;;
16242;SDS011;11719;51.052;6.982;2023-12-22T07:41:40;4.80;;;0.57;;
16242;SDS011;11719;51.052;6.982;2023-12-22T07:44:06;0.30;;;0.30;;
16242;SDS011;11719;51.052;6.982;2023-12-22T07:46:32;6.40;;;0.80;;
16242;SDS011;11719;51.052;6.982;2023-12-22T07:48:58;3.57;;;0.70;;
16242;SDS011;11719;51.052;6.982;2023-12-22T07:51:24;1.53;;;0.50;;
16242;SDS011;11719;51.052;6.982;2023-12-22T07:53:50;7.17;;;1.17;;
16242;SDS011;11719;51.052;6.982;2023-12-22T07:56:17;2.03;;;0.70;;
16242;SDS011;11719;51.052;6.982;2023-12-22T07:58:43;4.67;;;0.90;;
16242;SDS011;11719;51.052;6.982;2023-12-22T08:01:08;1.33;;;0.47;;
16242;SDS011;11719;51.052;6.982;2023-12-22T08:03:34;8.17;;;1.50;;
16242;SDS011;11719;51.052;6.982;2023-12-22T08:06:00;1.40;;;0.70;;
16242;SDS011;11719;51.052;6.982;2023-12-22T08:08:26;2.43;;;0.70;;
16242;SDS011;11719;51.052;6.982;2023-12-22T08:10:52;4.30;;;1.70;;
16242;SDS011;11719;51.052;6.982;2023-12-22T08:13:17;8.17;;;1.93;;
16242;SDS011;11719;51.052;6.982;2023-12-22T08:15:46;3.83;;;1.30;;
16242;SDS011;11719;51.052;6.982;2023-12-22T08:18:12;5.40;;;1.53;;
16242;SDS011;11719;51.052;6.982;2023-12-22T08:20:38;7.93;;;1.37;;
16242;SDS011;11719;51.052;6.982;2023-12-22T08:23:03;4.77;;;1.33;;
16242;SDS011;11719;51.052;6.982;2023-12-22T08:25:29;5.60;;;0.97;;
16242;SDS011;11719;51.052;6.982;2023-12-22T08:27:55;7.37;;;1.70;;
16242;SDS011;11719;51.052;6.982;2023-12-22T08:30:21;8.50;;;1.27;;
16242;SDS011;11719;51.052;6.982;2023-12-22T08:32:50;10.10;;;1.40;;
16242;SDS011;11719;51.052;6.982;2023-12-22T08:35:16;4.90;;;2.30;;
16242;SDS011;11719;51.052;6.982;2023-12-22T08:37:42;6.37;;;1.53;;
16242;SDS011;11719;51.052;6.982;2023-12-22T08:40:10;7.30;;;1.60;;
16242;SDS011;11719;51.052;6.982;2023-12-22T08:42:36;14.33;;;1.70;;
16242;SDS011;11719;51.052;6.982;2023-12-22T08:45:02;11.10;;;2.13;;
16242;SDS011;11719;51.052;6.982;2023-12-22T08:47:30;10.07;;;1.87;;
16242;SDS011;11719;51.052;6.982;2023-12-22T08:49:56;4.40;;;1.37;;
16242;SDS011;11719;51.052;6.982;2023-12-22T08:52:22;10.13;;;1.77;;
16242;SDS011;11719;51.052;6.982;2023-12-22T08:54:47;7.30;;;1.70;;
16242;SDS011;11719;51.052;6.982;2023-12-22T08:57:13;8.13;;;2.03;;
16242;SDS011;11719;51.052;6.982;2023-12-22T08:59:39;7.63;;;1.60;;
16242;SDS011;11719;51.052;6.982;2023-12-22T09:02:07;3.03;;;1.00;;
16242;SDS011;11719;51.052;6.982;2023-12-22T09:04:33;8.97;;;1.87;;
16242;SDS011;11719;51.052;6.982;2023-12-22T09:07:06;5.87;;;1.30;;
16242;SDS011;11719;51.052;6.982;2023-12-22T09:09:32;8.30;;;1.73;;
16242;SDS011;11719;51.052;6.982;2023-12-22T09:11:58;5.97;;;1.50;;
16242;SDS011;11719;51.052;6.982;2023-12-22T09:14:27;10.37;;;1.73;;
16242;SDS011;11719;51.052;6.982;2023-12-22T09:17:00;9.73;;;1.10;;
16242;SDS011;11719;51.052;6.982;2023-12-22T09:19:26;3.87;;;1.13;;
16242;SDS011;11719;51.052;6.982;2023-12-22T09:21:52;4.47;;;1.43;;
16242;SDS011;11719;51.052;6.982;2023-12-22T09:24:18;3.87;;;1.07;;
16242;SDS011;11719;51.052;6.982;2023-12-22T09:26:46;5.37;;;1.20;;
16242;SDS011;11719;51.052;6.982;2023-12-22T09:29:15;5.77;;;1.63;;
16242;SDS011;11719;51.052;6.982;2023-12-22T09:31:42;7.43;;;1.87;;
16242;SDS011;11719;51.052;6.982;2023-12-22T09:34:16;5.83;;;1.30;;
16242;SDS011;11719;51.052;6.982;2023-12-22T09:36:44;3.07;;;1.23;;
16242;SDS011;11719;51.052;6.982;2023-12-22T09:39:13;7.10;;;1.23;;
16242;SDS011;11719;51.052;6.982;2023-12-22T09:41:48;13.70;;;1.43;;
16242;SDS011;11719;51.052;6.982;2023-12-22T09:44:18;5.37;;;1.20;;
16242;SDS011;11719;51.052;6.982;2023-12-22T09:46:53;2.87;;;1.47;;
16242;SDS011;11719;51.052;6.982;2023-12-22T09:49:22;6.67;;;1.50;;
16242;SDS011;11719;51.052;6.982;2023-12-22T09:51:49;5.77;;;1.50;;
16242;SDS011;11719;51.052;6.982;2023-12-22T09:54:15;5.83;;;1.73;;
16242;SDS011;11719;51.052;6.982;2023-12-22T09:56:42;2.67;;;1.17;;
16242;SDS011;11719;51.052;6.982;2023-12-22T09:59:12;9.53;;;1.37;;
16242;SDS011;11719;51.052;6.982;2023-12-22T10:01:42;6.30;;;1.20;;
16242;SDS011;11719;51.052;6.982;2023-12-22T10:06:47;9.40;;;2.00;;
16242;SDS011;11719;51.052;6.982;2023-12-22T10:13:41;4.72;;;1.20;;
16242;SDS011;11719;51.052;6.982;2023-12-22T10:21:39;5.17;;;1.17;;
16242;SDS011;11719;51.052;6.982;2023-12-22T10:24:37;6.40;;;1.40;;
16242;SDS011;11719;51.052;6.982;2023-12-22T10:34:56;3.90;;;0.50;;
16242;SDS011;11719;51.052;6.982;2023-12-22T10:38:38;1.40;;;0.52;;
16242;SDS011;11719;51.052;6.982;2023-12-22T10:41:43;1.95;;;0.33;;
16242;SDS011;11719;51.052;6.982;2023-12-22T10:49:17;3.00;;;0.90;;
16242;SDS011;11719;51.052;6.982;2023-12-22T10:52:05;0.87;;;0.40;;
16242;SDS011;11719;51.052;6.982;2023-12-22T10:54:38;0.50;;;0.33;;
16242;SDS011;11719;51.052;6.982;2023-12-22T10:57:22;2.40;;;0.50;;
16242;SDS011;11719;51.052;6.982;2023-12-22T10:59:48;2.93;;;0.50;;
16242;SDS011;11719;51.052;6.982;2023-12-22T11:02:21;1.57;;;0.77;;
16242;SDS011;11719;51.052;6.982;2023-12-22T11:04:57;0.30;;;0.30;;
16242;SDS011;11719;51.052;6.982;2023-12-22T11:07:34;3.07;;;0.50;;
16242;SDS011;11719;51.052;6.982;2023-12-22T11:10:08;1.70;;;0.30;;
16242;SDS011;11719;51.052;6.982;2023-12-22T11:13:04;2.30;;;0.87;;
16242;SDS011;11719;51.052;6.982;2023-12-22T11:15:41;1.67;;;0.50;;
16242;SDS011;11719;51.052;6.982;2023-12-22T11:18:25;2.03;;;0.50;;
16242;SDS011;11719;51.052;6.982;2023-12-22T11:21:23;0.97;;;0.33;;
16242;SDS011;11719;51.052;6.982;2023-12-22T11:23:57;1.03;;;0.40;;
16242;SDS011;11719;51.052;6.982;2023-12-22T11:26:37;0.60;;;0.47;;
16242;SDS011;11719;51.052;6.982;2023-12-22T11:29:45;0.60;;;0.37;;
16242;SDS011;11719;51.052;6.982;2023-12-22T11:32:28;1.30;;;0.40;;
16242;SDS011;11719;51.052;6.982;2023-12-22T11:35:23;3.30;;;0.60;;
16242;SDS011;11719;51.052;6.982;2023-12-22T11:41:22;1.50;;;0.60;;
16242;SDS011;11719;51.052;6.982;2023-12-22T11:44:05;1.60;;;0.60;;
16242;SDS011;11719;51.052;6.982;2023-12-22T11:47:02;2.37;;;0.50;;
16242;SDS011;11719;51.052;6.982;2023-12-22T11:49:50;1.20;;;0.60;;
16242;SDS011;11719;51.052;6.982;2023-12-22T12:05:27;2.63;;;0.70;;
16242;SDS011;11719;51.052;6.982;2023-12-22T12:08:13;2.43;;;1.20;;
16242;SDS011;11719;51.052;6.982;2023-12-22T12:13:21;1.33;;;0.30;;
16242;SDS011;11719;51.052;6.982;2023-12-22T12:15:52;0.83;;;0.40;;
16242;SDS011;11719;51.052;6.982;2023-12-22T12:18:23;1.60;;;0.70;;
16242;SDS011;11719;51.052;6.982;2023-12-22T12:20:53;2.90;;;0.43;;
16242;SDS011;11719;51.052;6.982;2023-12-22T12:23:23;2.63;;;0.40;;
16242;SDS011;11719;51.052;6.982;2023-12-22T12:25:56;3.17;;;0.60;;
16242;SDS011;11719;51.052;6.982;2023-12-22T12:28:29;1.10;;;0.60;;
16242;SDS011;11719;51.052;6.982;2023-12-22T12:31:00;1.90;;;0.60;;
16242;SDS011;11719;51.052;6.982;2023-12-22T12:33:30;0.67;;;0.37;;
16242;SDS011;11719;51.052;6.982;2023-12-22T12:35:56;3.93;;;0.27;;
16242;SDS011;11719;51.052;6.982;2023-12-22T12:38:36;0.50;;;0.30;;
16242;SDS011;11719;51.052;6.982;2023-12-22T12:42:00;1.47;;;0.70;;
16242;SDS011;11719;51.052;6.982;2023-12-22T12:44:35;4.30;;;0.40;;
16242;SDS011;11719;51.052;6.982;2023-12-22T12:47:18;0.97;;;0.53;;
16242;SDS011;11719;51.052;6.982;2023-12-22T12:49:58;0.20;;;0.20;;
16242;SDS011;11719;51.052;6.982;2023-12-22T12:52:37;0.37;;;0.30;;
16242;SDS011;11719;51.052;6.982;2023-12-22T12:55:08;1.63;;;0.70;;
16242;SDS011;11719;51.052;6.982;2023-12-22T12:57:34;4.13;;;0.50;;
16242;SDS011;11719;51.052;6.982;2023-12-22T13:00:00;2.27;;;0.63;;
16242;SDS011;11719;51.052;6.982;2023-12-22T13:02:26;2.73;;;0.90;;
16242;SDS011;11719;51.052;6.982;2023-12-22T13:04:54;0.93;;;0.50;;
16242;SDS011;11719;51.052;6.982;2023-12-22T13:07:27;2.63;;;0.70;;
16242;SDS011;11719;51.052;6.982;2023-12-22T13:10:19;4.37;;;0.63;;
16242;SDS011;11719;51.052;6.982;2023-12-22T13:12:57;0.97;;;0.40;;
16242;SDS011;11719;51.052;6.982;2023-12-22T13:15:24;2.20;;;0.40;;
16242;SDS011;11719;51.052;6.982;2023-12-22T13:17:50;1.60;;;0.57;;
16242;SDS011;11719;51.052;6.982;2023-12-22T13:20:22;3.40;;;0.83;;
16242;SDS011;11719;51.052;6.982;2023-12-22T13:22:50;3.50;;;0.90;;
16242;SDS011;11719;51.052;6.982;2023-12-22T13:25:26;1.13;;;0.30;;
16242;SDS011;11719;51.052;6.982;2023-12-22T13:27:52;0.57;;;0.40;;
16242;SDS011;11719;51.052;6.982;2023-12-22T13:33:14;2.93;;;0.50;;
16242;SDS011;11719;51.052;6.982;2023-12-22T13:36:12;0.90;;;0.38;;
16242;SDS011;11719;51.052;6.982;2023-12-22T13:38:38;0.80;;;0.43;;
16242;SDS011;11719;51.052;6.982;2023-12-22T13:44:36;1.20;;;0.33;;
16242;SDS011;11719;51.052;6.982;2023-12-22T13:51:03;0.35;;;0.30;;
16242;SDS011;11719;51.052;6.982;2023-12-22T13:53:52;1.07;;;0.50;;
16242;SDS011;11719;51.052;6.982;2023-12-22T13:56:23;1.00;;;0.40;;
16242;SDS011;11719;51.052;6.982;2023-12-22T13:59:33;2.10;;;0.97;;
16242;SDS011;11719;51.052;6.982;2023-12-22T14:01:59;1.33;;;0.37;;
16242;SDS011;11719;51.052;6.982;2023-12-22T14:04:26;0.97;;;0.63;;
16242;SDS011;11719;51.052;6.982;2023-12-22T14:06:52;1.03;;;0.23;;
16242;SDS011;11719;51.052;6.982;2023-12-22T14:09:18;1.23;;;0.70;;
16242;SDS011;11719;51.052;6.982;2023-12-22T14:11:49;2.27;;;0.70;;
16242;SDS011;11719;51.052;6.982;2023-12-22T14:14:15;1.43;;;0.53;;
16242;SDS011;11719;51.052;6.982;2023-12-22T14:16:41;2.20;;;0.60;;
16242;SDS011;11719;51.052;6.982;2023-12-22T14:19:07;2.07;;;0.80;;
16242;SDS011;11719;51.052;6.982;2023-12-22T14:21:33;3.07;;;0.60;;
16242;SDS011;11719;51.052;6.982;2023-12-22T14:23:59;1.93;;;0.70;;
16242;SDS011;11719;51.052;6.982;2023-12-22T14:26:25;2.07;;;0.60;;
16242;SDS011;11719;51.052;6.982;2023-12-22T14:28:51;1.53;;;0.60;;
16242;SDS011;11719;51.052;6.982;2023-12-22T14:31:22;0.87;;;0.70;;
16242;SDS011;11719;51.052;6.982;2023-12-22T14:33:51;6.40;;;0.73;;
16242;SDS011;11719;51.052;6.982;2023-12-22T14:36:17;2.53;;;1.40;;
16242;SDS011;11719;51.052;6.982;2023-12-22T14:38:43;1.80;;;0.60;;
16242;SDS011;11719;51.052;6.982;2023-12-22T14:41:08;2.73;;;0.53;;
16242;SDS011;11719;51.052;6.982;2023-12-22T14:43:34;1.23;;;0.40;;
16242;SDS011;11719;51.052;6.982;2023-12-22T14:46:00;0.43;;;0.43;;
16242;SDS011;11719;51.052;6.982;2023-12-22T14:48:26;0.77;;;0.47;;
16242;SDS011;11719;51.052;6.982;2023-12-22T14:50:52;2.17;;;0.53;;
16242;SDS011;11719;51.052;6.982;2023-12-22T14:53:17;2.17;;;0.60;;
16242;SDS011;11719;51.052;6.982;2023-12-22T14:55:43;1.33;;;0.43;;
16242;SDS011;11719;51.052;6.982;2023-12-22T14:58:09;2.33;;;0.93;;
16242;SDS011;11719;51.052;6.982;2023-12-22T15:00:35;2.30;;;0.57;;
16242;SDS011;11719;51.052;6.982;2023-12-22T15:03:04;1.03;;;0.60;;
16242;SDS011;11719;51.052;6.982;2023-12-22T15:05:30;2.60;;;0.67;;
16242;SDS011;11719;51.052;6.982;2023-12-22T15:07:56;2.97;;;0.60;;
16242;SDS011;11719;51.052;6.982;2023-12-22T15:10:22;2.20;;;0.87;;
16242;SDS011;11719;51.052;6.982;2023-12-22T15:12:47;3.13;;;0.60;;
16242;SDS011;11719;51.052;6.982;2023-12-22T15:15:13;2.67;;;0.77;;
16242;SDS011;11719;51.052;6.982;2023-12-22T15:17:39;2.73;;;1.00;;
16242;SDS011;11719;51.052;6.982;2023-12-22T15:20:05;3.50;;;0.60;;
16242;SDS011;11719;51.052;6.982;2023-12-22T15:22:33;1.40;;;0.60;;
16242;SDS011;11719;51.052;6.982;2023-12-22T15:24:59;4.17;;;0.47;;
16242;SDS011;11719;51.052;6.982;2023-12-22T15:27:25;1.17;;;0.50;;
16242;SDS011;11719;51.052;6.982;2023-12-22T15:29:53;1.37;;;0.47;;
16242;SDS011;11719;51.052;6.982;2023-12-22T15:32:19;4.37;;;0.47;;
16242;SDS011;11719;51.052;6.982;2023-12-22T15:34:45;2.40;;;0.50;;
16242;SDS011;11719;51.052;6.982;2023-12-22T15:37:12;1.00;;;0.40;;
16242;SDS011;11719;51.052;6.982;2023-12-22T15:39:38;3.03;;;0.63;;
16242;SDS011;11719;51.052;6.982;2023-12-22T15:42:04;1.57;;;1.03;;
16242;SDS011;11719;51.052;6.982;2023-12-22T15:44:30;0.60;;;0.50;;
16242;SDS011;11719;51.052;6.982;2023-12-22T15:46:56;1.53;;;0.30;;
16242;SDS011;11719;51.052;6.982;2023-12-22T15:49:21;1.87;;;0.30;;
16242;SDS011;11719;51.052;6.982;2023-12-22T15:51:47;1.30;;;0.20;;
16242;SDS011;11719;51.052;6.982;2023-12-22T15:54:13;1.00;;;0.40;;
16242;SDS011;11719;51.052;6.982;2023-12-22T15:56:41;1.67;;;0.60;;
16242;SDS011;11719;51.052;6.982;2023-12-22T15:59:06;2.63;;;0.90;;
16242;SDS011;11719;51.052;6.982;2023-12-22T16:01:32;1.33;;;0.53;;
16242;SDS011;11719;51.052;6.982;2023-12-22T16:03:58;3.57;;;1.57;;
16242;SDS011;11719;51.052;6.982;2023-12-22T16:06:24;1.77;;;0.63;;
16242;SDS011;11719;51.052;6.982;2023-12-22T16:08:50;2.73;;;0.40;;
16242;SDS011;11719;51.052;6.982;2023-12-22T16:11:18;3.83;;;0.67;;
16242;SDS011;11719;51.052;6.982;2023-12-22T16:13:45;3.60;;;0.60;;